Time;durP1;ratioP1;P1;durP2;ratioP2;P2;SDS_P1;SDS_P2;PMS_P1;PMS_P2;Temp;Humidity;BMP_temperature;BMP_pressure;BME280_temperature;BME280_humidity;BME280_pressure;Samples;Min_cycle;Max_cycle;Signal;HPM_P1;HPM_P2
2023/06/24 00:01:36;;;;;;;4.93;3.25;;;;;;;23.85;67.49;99657.47;5097633;28;20040;-85
2023/06/24 00:04:02;;;;;;;4.90;3.15;;;;;;;23.71;67.74;99663.81;5087563;28;20137;-84
2023/06/24 00:06:27;;;;;;;4.10;2.88;;;;;;;23.61;67.87;99662.72;5097548;28;20076;-84
2023/06/24 00:09:00;;;;;;;5.55;3.42;;;;;;;23.51;68.04;99667.00;5092125;28;20063;-84
2023/06/24 00:11:29;;;;;;;4.00;2.72;;;;;;;23.44;67.97;99665.72;5092595;28;20541;-84
2023/06/24 00:13:55;;;;;;;3.33;1.98;;;;;;;23.36;68.23;99669.78;5090132;28;20031;-85
2023/06/24 00:16:27;;;;;;;5.60;3.22;;;;;;;23.17;67.79;99629.84;5101259;28;20034;-84
2023/06/24 00:19:00;;;;;;;4.85;2.80;;;;;;;23.20;67.88;99635.00;5109604;28;20507;-84
2023/06/24 00:21:37;;;;;;;3.67;2.60;;;;;;;23.07;68.04;99640.31;5090328;28;20040;-84
2023/06/24 00:24:04;;;;;;;6.32;3.00;;;;;;;23.10;68.57;99659.97;5100362;28;20031;-84
2023/06/24 00:26:30;;;;;;;6.03;2.88;;;;;;;22.96;69.09;99661.69;5110707;28;20519;-85
2023/06/24 00:28:55;;;;;;;3.35;2.60;;;;;;;22.64;69.06;99635.13;5108941;28;20028;-84
2023/06/24 00:31:21;;;;;;;2.92;2.55;;;;;;;22.50;69.61;99652.16;5104067;28;20028;-84
2023/06/24 00:33:47;;;;;;;4.43;2.53;;;;;;;22.31;69.65;99647.13;5080049;28;20104;-84
2023/06/24 00:36:13;;;;;;;4.03;2.17;;;;;;;22.27;69.52;99672.41;5090100;28;20406;-84
2023/06/24 00:38:39;;;;;;;3.38;2.50;;;;;;;22.13;68.26;99664.38;5101799;28;20039;-85
2023/06/24 00:41:05;;;;;;;3.70;2.42;;;;;;;22.05;67.78;99659.50;5107915;28;20023;-84
2023/06/24 00:43:31;;;;;;;6.47;4.00;;;;;;;22.15;67.25;99657.97;5094461;28;20123;-84
2023/06/24 00:45:57;;;;;;;4.05;2.60;;;;;;;22.26;66.93;99645.66;5094092;28;20204;-83
2023/06/24 00:48:24;;;;;;;4.53;2.25;;;;;;;22.33;66.78;99661.31;5093672;28;20088;-83
2023/06/24 00:50:50;;;;;;;2.60;2.05;;;;;;;22.31;66.99;99674.00;5075811;28;20507;-84
2023/06/24 00:53:16;;;;;;;2.85;2.42;;;;;;;22.43;66.81;99669.66;5094114;28;20068;-83
2023/06/24 00:55:42;;;;;;;3.10;2.65;;;;;;;22.22;67.18;99626.19;5078405;28;20036;-84
2023/06/24 00:58:07;;;;;;;15.07;3.50;;;;;;;22.15;67.60;99623.03;5099821;28;20034;-83
2023/06/24 01:00:34;;;;;;;3.45;2.40;;;;;;;21.94;68.18;99617.22;5113885;28;20034;-83
2023/06/24 01:03:00;;;;;;;5.05;1.98;;;;;;;21.71;68.97;99634.75;5113765;28;20038;-84
2023/06/24 01:05:26;;;;;;;5.68;3.08;;;;;;;21.56;68.89;99636.56;5095246;28;20391;-84
2023/06/24 01:07:55;;;;;;;10.60;3.65;;;;;;;21.67;68.98;99630.53;5113856;28;20039;-84
2023/06/24 01:10:23;;;;;;;4.82;2.60;;;;;;;21.67;68.54;99633.22;5113620;28;20503;-83
2023/06/24 01:12:50;;;;;;;2.95;2.08;;;;;;;21.84;68.07;99659.00;5114024;28;20034;-84
2023/06/24 01:15:16;;;;;;;5.50;2.75;;;;;;;21.80;68.07;99641.38;5095362;28;20118;-84
2023/06/24 01:17:48;;;;;;;2.97;2.15;;;;;;;21.55;68.27;99626.81;5111952;28;20165;-84
2023/06/24 01:20:32;;;;;;;4.63;2.20;;;;;;;21.88;67.82;99675.81;5112013;28;20028;-85
2023/06/24 01:23:19;;;;;;;7.13;3.72;;;;;;;21.97;67.93;99665.34;5113757;28;20072;-83
2023/06/24 01:26:09;;;;;;;6.32;2.70;;;;;;;22.06;67.58;99663.94;5102425;28;20035;-84
2023/06/24 01:29:06;;;;;;;4.03;2.33;;;;;;;22.08;67.08;99663.81;5093661;28;20028;-83
2023/06/24 01:31:45;;;;;;;5.70;2.00;;;;;;;21.69;68.07;99650.13;5094146;28;20043;-82
2023/06/24 01:34:38;;;;;;;2.58;1.85;;;;;;;21.44;69.27;99616.69;5092576;28;20044;-82
2023/06/24 01:37:26;;;;;;;3.63;2.33;;;;;;;21.57;69.15;99654.41;5106983;28;20116;-82
2023/06/24 01:40:14;;;;;;;4.65;2.67;;;;;;;21.39;68.72;99634.03;5110891;28;20065;-82
2023/06/24 01:42:43;;;;;;;6.05;2.28;;;;;;;21.20;69.77;99656.59;5090193;28;20040;-82
2023/06/24 01:45:22;;;;;;;5.72;3.45;;;;;;;21.03;69.57;99628.09;5093203;28;20051;-81
2023/06/24 01:47:54;;;;;;;2.97;1.98;;;;;;;20.95;69.10;99618.81;5093241;28;20486;-82
2023/06/24 01:50:22;;;;;;;5.07;3.55;;;;;;;21.09;69.46;99645.66;5093728;28;20024;-83
2023/06/24 01:52:52;;;;;;;4.53;3.10;;;;;;;21.12;69.49;99653.53;5098055;28;20024;-82
2023/06/24 01:55:20;;;;;;;4.75;2.60;;;;;;;21.10;69.62;99656.28;5092822;28;20039;-82
2023/06/24 01:57:49;;;;;;;5.30;3.00;;;;;;;21.09;69.72;99667.09;5092550;28;20040;-83
2023/06/24 02:00:16;;;;;;;4.80;2.65;;;;;;;20.84;70.03;99624.81;5092819;28;20035;-82
2023/06/24 02:02:44;;;;;;;5.78;4.13;;;;;;;20.93;69.51;99633.16;5093807;28;20043;-82
2023/06/24 02:05:11;;;;;;;2.70;2.17;;;;;;;20.94;69.42;99631.31;5073181;28;20044;-84
2023/06/24 02:07:38;;;;;;;3.70;2.40;;;;;;;20.92;69.51;99642.13;5092224;28;20039;-83
2023/06/24 02:10:06;;;;;;;4.00;2.85;;;;;;;21.06;69.35;99660.09;5092749;28;20401;-83
2023/06/24 02:12:32;;;;;;;4.57;2.72;;;;;;;21.17;68.63;99662.16;5093181;28;20036;-82
2023/06/24 02:14:59;;;;;;;7.07;2.63;;;;;;;21.08;68.21;99644.78;5074247;28;20039;-83
2023/06/24 02:17:29;;;;;;;4.68;3.30;;;;;;;20.95;68.18;99626.84;5091984;28;20028;-83
2023/06/24 02:19:56;;;;;;;4.45;2.35;;;;;;;21.13;68.23;99668.63;5073992;28;20085;-82
2023/06/24 02:22:22;;;;;;;3.45;2.03;;;;;;;21.25;67.96;99665.22;5092937;28;20035;-82
2023/06/24 02:24:50;;;;;;;4.70;2.83;;;;;;;21.33;67.86;99674.63;5092219;28;20035;-82
2023/06/24 02:27:16;;;;;;;5.93;3.70;;;;;;;21.22;67.51;99649.31;5092931;28;20032;-82
2023/06/24 02:29:43;;;;;;;5.05;2.80;;;;;;;21.40;67.18;99684.91;5110158;28;20485;-82
2023/06/24 02:32:09;;;;;;;3.17;2.28;;;;;;;21.32;67.12;99665.75;5073452;28;20109;-82
2023/06/24 02:34:35;;;;;;;3.70;2.20;;;;;;;21.43;67.38;99702.66;5091618;28;20077;-82
2023/06/24 02:37:00;;;;;;;4.35;3.20;;;;;;;21.17;67.57;99678.25;5091821;28;20032;-82
2023/06/24 02:39:26;;;;;;;3.53;1.95;;;;;;;21.34;67.20;99693.34;5073111;28;20040;-82
2023/06/24 02:41:51;;;;;;;4.22;2.75;;;;;;;21.26;67.34;99687.56;5093005;28;20462;-82
2023/06/24 02:44:17;;;;;;;4.38;2.75;;;;;;;21.42;67.06;99717.88;5091567;28;20047;-83
2023/06/24 02:46:44;;;;;;;6.07;3.08;;;;;;;21.34;67.32;99711.25;5092566;28;20060;-82
2023/06/24 02:49:13;;;;;;;6.00;3.10;;;;;;;21.06;67.17;99660.09;5091246;28;20035;-82
2023/06/24 02:51:39;;;;;;;9.38;3.33;;;;;;;21.35;66.92;99707.59;5092455;28;20036;-81
2023/06/24 02:54:06;;;;;;;7.43;3.60;;;;;;;21.23;66.71;99688.59;5091019;28;20056;-81
2023/06/24 02:56:32;;;;;;;5.15;2.70;;;;;;;21.30;66.90;99705.19;5092081;28;20507;-81
2023/06/24 02:58:58;;;;;;;6.10;3.67;;;;;;;21.19;66.90;99697.78;5091173;28;20028;-80
2023/06/24 03:01:24;;;;;;;3.83;1.67;;;;;;;21.21;67.10;99697.69;5073904;28;20047;-81
2023/06/24 03:03:53;;;;;;;4.55;3.25;;;;;;;21.24;67.00;99695.72;5111159;28;20026;-82
2023/06/24 03:06:19;;;;;;;7.68;3.30;;;;;;;21.35;66.56;99703.13;5111034;28;20106;-82
2023/06/24 03:08:45;;;;;;;9.93;2.60;;;;;;;21.32;66.89;99716.72;5111644;28;20139;-81
2023/06/24 03:11:15;;;;;;;5.07;3.15;;;;;;;21.26;66.66;99711.72;5111586;28;20126;-80
2023/06/24 03:13:41;;;;;;;3.70;2.40;;;;;;;21.40;66.83;99735.03;5110102;28;20409;-82
2023/06/24 03:16:11;;;;;;;3.90;2.65;;;;;;;21.41;66.97;99717.97;5078960;28;20028;-81
2023/06/24 03:18:39;;;;;;;2.97;2.17;;;;;;;21.55;66.79;99726.09;5090729;28;20044;-82
2023/06/24 03:21:05;;;;;;;4.60;2.35;;;;;;;21.50;66.86;99730.88;5090718;28;20478;-82
2023/06/24 03:23:30;;;;;;;4.53;2.25;;;;;;;21.40;66.91;99724.31;5092165;28;20028;-81
2023/06/24 03:25:56;;;;;;;11.00;2.13;;;;;;;21.29;66.96;99709.69;5090735;28;20027;-82
2023/06/24 03:28:21;;;;;;;3.88;3.28;;;;;;;21.40;67.29;99719.78;5090835;28;20108;-83
2023/06/24 03:30:47;;;;;;;5.80;3.13;;;;;;;21.40;66.84;99701.00;5071921;28;20183;-84
2023/06/24 03:33:16;;;;;;;4.53;2.55;;;;;;;21.32;66.92;99683.63;5091074;28;20035;-84
2023/06/24 03:35:43;;;;;;;5.22;2.67;;;;;;;21.48;67.03;99724.69;5110528;28;20024;-83
2023/06/24 03:38:08;;;;;;;4.30;2.50;;;;;;;21.56;66.73;99743.91;5111251;28;20063;-83
2023/06/24 03:40:34;;;;;;;4.30;2.80;;;;;;;21.41;67.05;99731.38;5093015;28;20562;-83
2023/06/24 03:42:59;;;;;;;3.92;2.33;;;;;;;21.37;66.76;99721.81;5092421;28;20039;-83
2023/06/24 03:45:25;;;;;;;4.72;2.90;;;;;;;21.58;66.42;99717.88;5089991;28;20052;-83
2023/06/24 03:47:50;;;;;;;3.83;2.58;;;;;;;21.40;67.10;99709.06;5110851;28;20031;-84
2023/06/24 03:50:16;;;;;;;5.50;2.78;;;;;;;21.51;67.02;99724.56;5110916;28;20119;-83
2023/06/24 03:52:41;;;;;;;3.20;2.13;;;;;;;21.42;66.98;99691.03;5110332;28;20035;-84
2023/06/24 03:55:07;;;;;;;6.10;3.33;;;;;;;21.66;66.88;99714.72;5109378;28;20038;-84
2023/06/24 03:57:33;;;;;;;6.88;3.83;;;;;;;21.80;67.07;99721.94;5110673;28;20035;-84
2023/06/24 03:59:58;;;;;;;5.25;2.42;;;;;;;21.79;67.79;99722.88;5105979;28;20417;-83
2023/06/24 04:02:24;;;;;;;6.45;3.28;;;;;;;21.87;68.45;99731.31;5098816;28;20024;-84
2023/06/24 04:04:50;;;;;;;5.50;3.05;;;;;;;21.63;68.80;99707.72;5087810;28;20067;-83
2023/06/24 04:07:26;;;;;;;5.72;3.67;;;;;;;21.83;68.53;99716.38;5090309;28;20043;-83
2023/06/24 04:09:54;;;;;;;6.03;3.15;;;;;;;21.97;68.57;99727.13;5093885;28;20122;-83
2023/06/24 04:12:19;;;;;;;5.53;2.90;;;;;;;22.03;68.68;99739.31;5092917;27;20478;-83
2023/06/24 04:14:45;;;;;;;6.05;3.10;;;;;;;21.87;68.46;99696.41;5089511;28;20089;-83
2023/06/24 04:17:10;;;;;;;5.18;2.95;;;;;;;22.12;67.22;99701.13;5092849;28;20031;-83
2023/06/24 04:19:36;;;;;;;7.45;2.17;;;;;;;22.20;67.20;99735.56;5110263;28;20500;-83
2023/06/24 04:22:01;;;;;;;7.70;4.22;;;;;;;22.10;66.49;99729.91;5094057;28;20505;-83
2023/06/24 04:24:27;;;;;;;4.78;3.22;;;;;;;21.94;66.06;99694.22;5099101;28;20038;-84
2023/06/24 04:26:56;;;;;;;4.97;3.58;;;;;;;22.17;65.80;99749.19;5099504;28;20502;-84
2023/06/24 04:29:21;;;;;;;3.67;2.55;;;;;;;21.97;65.95;99737.00;5090194;28;20114;-85
2023/06/24 04:31:47;;;;;;;4.68;2.08;;;;;;;21.97;65.62;99724.44;5097407;28;20460;-84
2023/06/24 04:34:12;;;;;;;4.97;3.15;;;;;;;22.15;65.13;99730.50;5090377;28;20062;-82
2023/06/24 04:36:38;;;;;;;4.10;2.63;;;;;;;22.23;64.47;99734.50;5089755;28;20120;-82
2023/06/24 04:39:04;;;;;;;2.92;2.60;;;;;;;22.29;64.11;99758.28;5093293;28;20024;-82
2023/06/24 04:41:32;;;;;;;4.55;3.28;;;;;;;21.97;64.17;99689.53;5094903;28;20085;-82
2023/06/24 04:43:57;;;;;;;8.38;3.75;;;;;;;21.94;64.46;99716.56;5071657;28;20467;-83
2023/06/24 04:46:23;;;;;;;5.97;3.80;;;;;;;22.48;63.87;99758.91;5093836;28;20023;-83
2023/06/24 04:48:48;;;;;;;7.35;3.35;;;;;;;22.78;62.43;99751.66;5110451;28;20031;-83
2023/06/24 04:51:14;;;;;;;4.63;2.05;;;;;;;22.86;62.00;99755.59;5104416;28;20119;-84
2023/06/24 04:53:40;;;;;;;5.35;2.42;;;;;;;23.07;61.35;99757.81;5099355;28;20024;-83
2023/06/24 04:56:06;;;;;;;4.00;2.58;;;;;;;23.42;60.83;99768.97;5099173;28;20036;-84
2023/06/24 04:58:32;;;;;;;3.22;2.40;;;;;;;23.44;60.10;99752.72;5099152;28;20073;-83
2023/06/24 05:00:58;;;;;;;4.20;3.13;;;;;;;23.74;59.58;99751.56;5107266;28;20080;-83
2023/06/24 05:03:24;;;;;;;6.07;2.60;;;;;;;24.14;58.15;99767.69;5088392;28;20096;-84
2023/06/24 05:05:49;;;;;;;4.40;2.72;;;;;;;24.18;57.63;99738.72;5090038;28;21034;-82
2023/06/24 05:08:15;;;;;;;3.55;2.75;;;;;;;24.21;56.86;99736.63;5094556;28;20669;-83
2023/06/24 05:10:40;;;;;;;3.70;2.50;;;;;;;24.46;56.73;99751.06;5091974;28;20029;-82
2023/06/24 05:13:06;;;;;;;22.48;4.53;;;;;;;24.86;56.82;99780.56;5090283;28;20115;-81
2023/06/24 05:15:31;;;;;;;5.65;2.97;;;;;;;24.94;56.26;99790.78;5089503;28;20489;-82
2023/06/24 05:17:57;;;;;;;6.45;2.47;;;;;;;24.95;55.19;99790.66;5092142;28;20420;-82
2023/06/24 05:20:22;;;;;;;5.20;3.05;;;;;;;25.09;56.16;99800.44;5097215;28;20505;-82
2023/06/24 05:22:48;;;;;;;4.15;2.38;;;;;;;24.76;56.61;99783.06;5103064;28;20052;-85
2023/06/24 05:25:14;;;;;;;3.15;2.55;;;;;;;25.08;56.42;99774.44;5109065;28;20036;-85
2023/06/24 05:27:39;;;;;;;4.50;2.83;;;;;;;25.18;56.37;99782.72;5089548;28;20031;-84
2023/06/24 05:30:06;;;;;;;6.65;4.72;;;;;;;25.27;56.67;99779.34;5093518;28;20035;-85
2023/06/24 05:32:31;;;;;;;10.90;3.83;;;;;;;25.19;55.12;99760.13;5094151;28;20036;-85
2023/06/24 05:34:57;;;;;;;6.95;3.85;;;;;;;25.32;56.93;99750.19;5093558;28;20028;-87
2023/06/24 05:37:22;;;;;;;18.80;9.10;;;;;;;26.06;58.04;99762.59;5074868;28;20119;-85
2023/06/24 05:39:48;;;;;;;6.93;3.83;;;;;;;26.28;54.35;99753.63;5092802;28;20036;-85
2023/06/24 05:42:14;;;;;;;3.47;2.35;;;;;;;26.43;54.01;99733.47;5104416;28;20038;-87
2023/06/24 05:44:39;;;;;;;5.35;4.22;;;;;;;26.79;53.18;99771.22;5109745;28;20500;-87
2023/06/24 05:47:05;;;;;;;10.25;5.13;;;;;;;26.72;53.04;99810.56;5094399;28;20028;-87
2023/06/24 05:49:30;;;;;;;5.53;3.53;;;;;;;26.45;53.12;99766.66;5073219;28;20032;-85
2023/06/24 05:51:57;;;;;;;4.05;3.13;;;;;;;27.12;51.32;99805.44;5057617;28;20043;-85
2023/06/24 05:54:24;;;;;;;5.10;3.90;;;;;;;26.33;50.24;99718.09;5092969;28;20032;-85
2023/06/24 05:56:50;;;;;;;4.28;3.08;;;;;;;26.79;51.46;99777.47;5077417;28;20036;-84
2023/06/24 05:59:15;;;;;;;5.15;3.25;;;;;;;26.80;51.25;99740.44;5097109;28;20051;-85
2023/06/24 06:01:41;;;;;;;7.05;4.72;;;;;;;26.86;49.25;99742.63;5093053;28;20580;-90
2023/06/24 06:04:07;;;;;;;8.05;3.95;;;;;;;26.80;49.46;99748.56;5094137;28;20405;-87
2023/06/24 06:06:32;;;;;;;5.72;3.38;;;;;;;27.14;50.39;99779.13;5112972;28;20127;-89
2023/06/24 06:08:59;;;;;;;5.10;2.97;;;;;;;27.15;51.45;99736.66;5113130;28;20046;-90
2023/06/24 06:11:24;;;;;;;7.65;3.08;;;;;;;27.58;50.09;99808.06;5113849;28;20110;-92
2023/06/24 06:13:50;;;;;;;6.13;3.33;;;;;;;27.13;49.45;99746.78;5114953;28;20438;-91
2023/06/24 06:16:16;;;;;;;6.22;3.13;;;;;;;27.23;48.45;99741.44;5095036;28;20466;-90
2023/06/24 06:18:44;;;;;;;13.00;3.60;;;;;;;27.14;48.58;99729.53;5104860;28;20055;-91
2023/06/24 06:21:10;;;;;;;6.75;3.65;;;;;;;27.67;48.39;99763.94;5078131;28;20486;-90
2023/06/24 06:23:36;;;;;;;6.72;3.35;;;;;;;27.64;48.45;99737.09;5085639;28;20059;-91
2023/06/24 06:26:02;;;;;;;5.68;3.08;;;;;;;28.11;47.40;99728.56;5105741;28;20036;-90
2023/06/24 06:28:27;;;;;;;6.30;4.03;;;;;;;28.07;47.07;99722.56;5101055;28;20020;-92
2023/06/24 06:30:53;;;;;;;6.45;3.28;;;;;;;28.14;45.96;99723.72;5112023;28;20440;-91
2023/06/24 06:33:19;;;;;;;3.35;2.55;;;;;;;28.02;46.21;99697.69;5084528;28;20028;-88
2023/06/24 06:35:45;;;;;;;4.20;2.45;;;;;;;28.11;47.28;99721.28;5106625;28;20405;-88
2023/06/24 06:38:11;;;;;;;4.95;3.50;;;;;;;28.91;47.95;99783.88;5112339;28;20038;-93
2023/06/24 06:40:36;;;;;;;6.28;3.67;;;;;;;29.40;45.69;99754.97;5111051;28;20050;-91
2023/06/24 06:43:03;;;;;;;5.68;3.47;;;;;;;29.19;45.35;99732.47;5107468;28;20036;-90
2023/06/24 06:45:35;;;;;;;5.85;3.53;;;;;;;28.96;44.05;99699.31;5108995;28;20531;-91
2023/06/24 06:48:07;;;;;;;4.45;2.83;;;;;;;28.52;44.45;99667.91;5071385;28;20209;-92
2023/06/24 06:50:33;;;;;;;5.88;3.67;;;;;;;29.49;44.04;99704.34;5091101;28;20440;-93
2023/06/24 06:52:59;;;;;;;4.43;2.60;;;;;;;29.37;44.13;99684.63;5094354;28;20028;-91
2023/06/24 06:55:25;;;;;;;5.35;3.33;;;;;;;30.09;43.52;99727.69;5077732;28;20024;-91
2023/06/24 06:57:51;;;;;;;4.97;2.72;;;;;;;30.05;44.34;99693.66;5093731;27;20074;-90
2023/06/24 07:00:16;;;;;;;11.40;5.45;;;;;;;29.54;43.78;99717.50;5090014;27;20113;-87
2023/06/24 07:02:43;;;;;;;7.53;5.85;;;;;;;29.71;44.34;99703.16;5090644;28;21855;-91
2023/06/24 07:05:09;;;;;;;9.65;6.35;;;;;;;30.01;45.74;99717.56;5091550;28;20024;-89
2023/06/24 07:07:41;;;;;;;8.68;4.30;;;;;;;30.62;43.54;99694.41;5090739;27;20081;-90
2023/06/24 07:10:07;;;;;;;9.02;3.70;;;;;;;31.58;42.26;99747.50;5103020;28;20104;-89
2023/06/24 07:12:34;;;;;;;6.22;3.47;;;;;;;31.33;41.76;99703.66;5080600;28;20028;-94
2023/06/24 07:15:00;;;;;;;13.05;4.20;;;;;;;30.86;41.43;99714.75;5099279;28;20036;-90
2023/06/24 07:17:27;;;;;;;5.47;3.10;;;;;;;31.05;43.25;99731.00;5108698;28;20412;-89
2023/06/24 07:19:53;;;;;;;3.97;3.03;;;;;;;30.53;43.50;99703.50;5080908;28;20131;-90
2023/06/24 07:22:19;;;;;;;6.03;3.75;;;;;;;31.35;43.72;99692.63;5092175;28;20020;-89
2023/06/24 07:24:44;;;;;;;5.63;3.50;;;;;;;31.31;41.85;99681.19;5089540;28;20039;-89
2023/06/24 07:27:12;;;;;;;9.10;4.10;;;;;;;31.24;41.68;99674.63;5084586;28;20040;-90
2023/06/24 07:29:43;;;;;;;5.35;3.53;;;;;;;31.81;39.99;99654.28;5108626;27;20064;-89
2023/06/24 07:32:09;;;;;;;4.68;3.03;;;;;;;31.88;40.64;99699.84;5111010;27;20176;-85
2023/06/24 07:34:34;;;;;;;5.95;3.63;;;;;;;31.76;40.39;99712.03;5122484;27;20540;-87
2023/06/24 07:37:00;;;;;;;6.32;4.13;;;;;;;31.61;40.40;99645.50;5098694;28;20417;-84
2023/06/24 07:39:25;;;;;;;6.28;3.90;;;;;;;31.26;42.36;99685.38;5090003;27;20089;-88
2023/06/24 07:41:52;;;;;;;6.57;3.97;;;;;;;31.52;41.51;99674.53;5105539;27;20024;-88
2023/06/24 07:44:19;;;;;;;8.27;3.85;;;;;;;31.92;40.85;99733.97;5090440;28;20044;-85
2023/06/24 07:46:44;;;;;;;5.60;3.97;;;;;;;31.86;42.27;99723.69;5090869;28;20031;-87
2023/06/24 07:49:10;;;;;;;6.75;4.00;;;;;;;31.82;42.42;99703.19;5107294;28;20513;-88
2023/06/24 07:51:35;;;;;;;6.20;3.75;;;;;;;32.37;39.35;99698.44;5109925;28;20406;-87
2023/06/24 07:54:01;;;;;;;8.57;4.85;;;;;;;32.14;38.34;99685.34;5090219;28;20027;-88
2023/06/24 07:56:27;;;;;;;8.07;3.83;;;;;;;31.36;39.53;99710.69;5094797;28;20122;-88
2023/06/24 07:58:53;;;;;;;5.82;3.90;;;;;;;31.01;40.88;99701.50;5110675;28;20031;-88
2023/06/24 08:01:18;;;;;;;14.90;4.35;;;;;;;31.53;41.71;99688.00;5102700;28;20442;-86
2023/06/24 08:03:43;;;;;;;5.55;3.47;;;;;;;32.29;38.92;99711.00;5107030;28;20028;-85
2023/06/24 08:06:09;;;;;;;14.18;9.65;;;;;;;32.60;42.29;99706.88;5110281;28;20032;-86
2023/06/24 08:08:35;;;;;;;17.13;12.77;;;;;;;33.20;37.25;99694.97;5110130;28;20051;-86
2023/06/24 08:11:02;;;;;;;6.47;4.57;;;;;;;33.05;37.21;99705.66;5092299;28;20043;-87
2023/06/24 08:13:28;;;;;;;8.07;3.55;;;;;;;31.86;39.63;99673.75;5092584;28;20408;-86
2023/06/24 08:15:53;;;;;;;6.93;4.03;;;;;;;32.93;39.32;99705.09;5110564;28;20114;-87
2023/06/24 08:18:19;;;;;;;4.50;3.05;;;;;;;32.68;37.28;99687.81;5110513;28;20039;-85
2023/06/24 08:20:45;;;;;;;6.03;2.95;;;;;;;33.45;36.53;99708.63;5110035;28;20417;-88
2023/06/24 08:23:10;;;;;;;5.07;3.08;;;;;;;33.55;35.65;99673.75;5091577;28;20073;-89
2023/06/24 08:25:36;;;;;;;5.55;2.45;;;;;;;34.15;35.93;99737.28;5086598;28;20139;-87
2023/06/24 08:28:01;;;;;;;4.38;2.85;;;;;;;33.51;35.13;99697.00;5090400;28;20028;-87
2023/06/24 08:30:27;;;;;;;5.72;2.78;;;;;;;32.88;37.05;99699.31;5071833;28;20028;-88
2023/06/24 08:32:52;;;;;;;4.00;2.63;;;;;;;32.71;36.69;99683.91;5107359;28;20035;-88
2023/06/24 08:35:18;;;;;;;4.38;2.92;;;;;;;33.15;35.76;99695.44;5091386;28;20113;-86
2023/06/24 08:37:43;;;;;;;5.35;3.25;;;;;;;33.92;34.78;99698.84;5088531;28;20028;-86
2023/06/24 08:40:09;;;;;;;7.72;2.80;;;;;;;34.25;36.87;99727.88;5089744;28;20034;-86
2023/06/24 08:42:36;;;;;;;5.20;3.45;;;;;;;33.81;36.88;99665.34;5071661;28;20119;-87
2023/06/24 08:45:02;;;;;;;4.75;3.13;;;;;;;33.88;35.35;99665.53;5092643;28;20036;-87
2023/06/24 08:47:29;;;;;;;5.55;3.50;;;;;;;33.94;34.36;99683.09;5083557;28;20049;-84
2023/06/24 08:50:08;;;;;;;4.97;2.53;;;;;;;34.50;35.22;99718.72;5109823;28;20089;-86
2023/06/24 08:52:36;;;;;;;5.80;3.47;;;;;;;33.55;35.65;99668.28;5091589;28;20072;-86
2023/06/24 08:55:04;;;;;;;4.28;2.70;;;;;;;34.00;35.68;99696.09;5089715;28;20024;-87
2023/06/24 08:57:29;;;;;;;4.95;3.10;;;;;;;33.60;35.54;99690.50;5088807;28;20035;-87
2023/06/24 08:59:55;;;;;;;7.25;3.80;;;;;;;32.92;36.47;99676.09;5095363;28;20491;-86
2023/06/24 09:02:20;;;;;;;7.57;5.03;;;;;;;33.17;38.73;99708.94;5109653;28;20544;-86
2023/06/24 09:04:46;;;;;;;7.00;3.95;;;;;;;33.00;38.79;99675.25;5095572;28;20123;-87
2023/06/24 09:07:12;;;;;;;7.70;4.60;;;;;;;33.54;39.91;99705.72;5095472;28;20016;-87
2023/06/24 09:09:45;;;;;;;6.50;3.17;;;;;;;34.05;37.08;99704.66;5095816;28;20042;-88
2023/06/24 09:12:12;;;;;;;4.43;3.30;;;;;;;34.14;36.44;99713.66;5113417;28;20036;-89
2023/06/24 09:14:38;;;;;;;6.18;3.92;;;;;;;33.50;36.54;99690.66;5096152;28;20036;-90
2023/06/24 09:17:03;;;;;;;5.65;3.55;;;;;;;33.86;36.94;99665.72;5093388;28;20105;-88
2023/06/24 09:19:29;;;;;;;4.70;3.08;;;;;;;34.68;35.20;99675.50;5092632;28;20114;-87
2023/06/24 09:21:58;;;;;;;5.35;3.05;;;;;;;34.96;35.93;99666.78;5093070;28;20157;-87
2023/06/24 09:24:29;;;;;;;6.97;3.40;;;;;;;34.97;35.88;99685.78;5092676;28;20024;-88
2023/06/24 09:26:58;;;;;;;7.05;3.72;;;;;;;34.90;33.74;99664.78;5093274;28;20480;-87
2023/06/24 09:29:27;;;;;;;3.65;2.35;;;;;;;34.89;34.25;99698.69;5092924;28;20043;-86
2023/06/24 09:31:52;;;;;;;4.88;3.10;;;;;;;34.49;34.71;99673.19;5075619;28;20039;-88
2023/06/24 09:34:19;;;;;;;5.90;3.78;;;;;;;34.27;34.90;99664.75;5094813;28;20123;-87
2023/06/24 09:36:52;;;;;;;7.07;2.95;;;;;;;33.97;35.08;99683.63;5105333;27;20036;-86
2023/06/24 09:39:17;;;;;;;5.25;3.63;;;;;;;33.98;35.03;99630.59;5092775;28;20024;-87
2023/06/24 09:41:43;;;;;;;7.32;3.90;;;;;;;34.11;37.08;99662.03;5112699;28;20020;-86
2023/06/24 09:44:12;;;;;;;4.97;3.38;;;;;;;34.57;36.78;99674.00;5096367;28;20821;-88
2023/06/24 09:46:38;;;;;;;5.20;3.85;;;;;;;34.88;34.22;99672.31;5092736;28;20035;-87
2023/06/24 09:49:05;;;;;;;5.93;3.53;;;;;;;34.19;34.87;99632.75;5099505;28;20500;-88
2023/06/24 09:51:37;;;;;;;9.90;5.03;;;;;;;34.62;35.64;99632.41;5086745;28;20097;-89
2023/06/24 09:54:07;;;;;;;6.07;3.60;;;;;;;34.63;36.20;99601.22;5074022;28;20484;-89
2023/06/24 09:56:37;;;;;;;9.55;4.38;;;;;;;35.17;34.06;99572.06;5093115;28;20031;-86
2023/06/24 09:59:06;;;;;;;5.80;3.60;;;;;;;34.97;33.73;99608.19;5108242;28;20047;-87
2023/06/24 10:01:35;;;;;;;6.32;3.83;;;;;;;35.02;33.84;99614.00;5098893;28;20040;-88
2023/06/24 10:04:01;;;;;;;5.35;3.13;;;;;;;34.61;34.53;99589.59;5104562;28;20024;-87
2023/06/24 10:06:28;;;;;;;8.35;3.05;;;;;;;35.07;35.54;99638.09;5103745;28;20031;-88
2023/06/24 10:08:54;;;;;;;6.38;4.03;;;;;;;34.52;34.11;99586.06;5099413;28;20160;-88
2023/06/24 10:11:19;;;;;;;6.75;3.53;;;;;;;34.77;33.89;99611.44;5100507;28;20027;-86
2023/06/24 10:13:45;;;;;;;8.13;4.57;;;;;;;34.64;37.07;99578.28;5093744;28;20494;-89
2023/06/24 10:16:11;;;;;;;5.38;3.40;;;;;;;34.36;34.41;99569.75;5100408;28;20023;-88
2023/06/24 10:18:39;;;;;;;5.03;2.28;;;;;;;34.33;33.06;99553.69;5094520;28;20047;-88
2023/06/24 10:21:06;;;;;;;5.53;3.17;;;;;;;35.14;33.50;99607.03;5074727;28;20085;-90
2023/06/24 10:23:57;;;;;;;5.20;2.88;;;;;;;35.32;34.50;99597.66;5094736;28;20020;-88
2023/06/24 10:26:29;;;;;;;4.53;3.47;;;;;;;35.15;36.18;99614.22;5090077;28;20043;-85
2023/06/24 10:29:07;;;;;;;5.85;3.38;;;;;;;35.59;36.79;99614.50;5095685;28;20028;-88
2023/06/24 10:31:51;;;;;;;8.65;3.78;;;;;;;35.41;35.72;99577.34;5096178;28;20023;-87
2023/06/24 10:34:26;;;;;;;;;;;;;;;35.46;34.61;99598.72;5099888;28;20032;-87
2023/06/24 10:37:07;;;;;;;5.85;3.38;;;;;;;35.39;34.02;99616.94;5095309;28;19911;-87
2023/06/24 10:39:45;;;;;;;5.30;3.28;;;;;;;35.09;35.14;99540.94;5092480;27;20485;-89
2023/06/24 10:42:28;;;;;;;6.55;3.50;;;;;;;35.27;34.42;99589.97;5089903;28;20107;-87
2023/06/24 10:44:59;;;;;;;6.53;4.07;;;;;;;34.70;34.72;99568.50;5077067;28;20100;-86
2023/06/24 10:47:26;;;;;;;5.60;3.03;;;;;;;35.12;34.72;99562.50;5098255;28;20027;-88
2023/06/24 10:49:52;;;;;;;4.55;3.10;;;;;;;34.89;35.09;99532.41;5074774;27;20042;-88
2023/06/24 10:52:22;;;;;;;5.60;3.10;;;;;;;34.81;35.34;99540.69;5091440;27;20031;-88
2023/06/24 10:54:48;;;;;;;7.60;4.03;;;;;;;35.40;34.95;99529.00;5077739;28;20023;-87
2023/06/24 10:57:14;;;;;;;10.40;4.80;;;;;;;34.94;34.30;99512.66;5094891;28;20040;-85
2023/06/24 10:59:41;;;;;;;5.68;3.47;;;;;;;35.01;33.59;99540.19;5090249;28;20100;-87
2023/06/24 11:02:13;;;;;;;4.53;3.15;;;;;;;34.89;35.10;99520.59;5094991;27;20024;-88
2023/06/24 11:04:49;;;;;;;5.22;3.70;;;;;;;35.06;34.70;99538.59;5091325;27;20028;-88
2023/06/24 11:07:18;;;;;;;5.30;2.95;;;;;;;35.37;34.23;99521.16;5095919;28;20051;-89
2023/06/24 11:09:52;;;;;;;5.60;3.42;;;;;;;35.12;33.68;99495.88;5074680;28;20028;-89
2023/06/24 11:12:18;;;;;;;4.77;3.13;;;;;;;35.08;35.69;99476.25;5100650;28;20031;-88
2023/06/24 11:14:44;;;;;;;9.68;4.72;;;;;;;35.67;34.85;99535.75;5098085;28;20035;-87
2023/06/24 11:17:10;;;;;;;5.97;3.60;;;;;;;35.45;34.31;99503.78;5098219;28;20034;-88
2023/06/24 11:19:39;;;;;;;6.57;3.90;;;;;;;35.93;33.56;99462.22;5091967;28;20028;-87
2023/06/24 11:22:06;;;;;;;5.68;3.85;;;;;;;35.74;33.58;99485.59;5097957;27;20032;-88
2023/06/24 11:24:32;;;;;;;6.18;4.20;;;;;;;35.93;34.48;99474.06;5072687;28;20107;-89
2023/06/24 11:26:58;;;;;;;5.22;3.05;;;;;;;35.73;32.73;99470.19;5094565;28;20118;-88
2023/06/24 11:29:24;;;;;;;7.72;3.70;;;;;;;35.80;33.33;99477.47;5093283;28;20545;-88
2023/06/24 11:31:50;;;;;;;8.63;3.55;;;;;;;35.77;32.91;99436.72;5099835;28;20115;-88
2023/06/24 11:34:16;;;;;;;5.28;2.92;;;;;;;35.94;33.07;99445.56;5072120;28;20165;-88
2023/06/24 11:36:42;;;;;;;5.25;3.55;;;;;;;36.16;33.09;99449.19;5101155;27;20024;-87